Time;durP1;ratioP1;P1;durP2;ratioP2;P2;SDS_P1;SDS_P2;PMS_P1;PMS_P2;Temp;Humidity;BMP_temperature;BMP_pressure;BME280_temperature;BME280_humidity;BME280_pressure;Samples;Min_cycle;Max_cycle;Signal;HPM_P1;HPM_P2
2020/12/14 00:00:27;;;;;;;15.10;5.43;;;3.00;96.80;;;;;;5046593;28;20140;-74
2020/12/14 00:02:54;;;;;;;22.40;8.02;;;3.00;96.90;;;;;;5037951;28;20195;-74
2020/12/14 00:05:21;;;;;;;11.75;5.15;;;2.90;97.00;;;;;;5040063;28;20052;-74
2020/12/14 00:07:47;;;;;;;14.15;4.85;;;2.90;96.90;;;;;;5039435;28;20123;-74
2020/12/14 00:10:14;;;;;;;16.55;4.53;;;2.90;97.10;;;;;;5036425;28;20123;-74
2020/12/14 00:12:40;;;;;;;13.98;3.92;;;2.90;97.10;;;;;;5030677;28;20115;-74
2020/12/14 00:15:06;;;;;;;14.63;4.75;;;2.90;97.10;;;;;;5046087;28;20056;-74
2020/12/14 00:17:33;;;;;;;12.05;4.22;;;2.90;97.20;;;;;;5041305;28;20053;-74
2020/12/14 00:20:00;;;;;;;14.90;5.60;;;2.80;97.30;;;;;;5040243;28;20120;-74
2020/12/14 00:22:31;;;;;;;12.73;5.57;;;2.80;97.50;;;;;;5040346;28;20132;-74
2020/12/14 00:24:58;;;;;;;14.40;5.88;;;2.80;97.50;;;;;;5038715;28;20080;-74
2020/12/14 00:27:25;;;;;;;15.13;4.55;;;2.70;97.70;;;;;;5037434;28;20129;-74
2020/12/14 00:29:51;;;;;;;15.20;5.60;;;2.70;97.70;;;;;;5036414;28;20077;-74
2020/12/14 00:32:18;;;;;;;14.30;4.70;;;2.70;97.60;;;;;;5031991;28;20144;-74
2020/12/14 00:34:44;;;;;;;18.88;7.85;;;2.60;97.50;;;;;;5027547;28;20411;-74
2020/12/14 00:37:10;;;;;;;16.00;6.55;;;2.60;97.70;;;;;;5027265;28;20130;-74
2020/12/14 00:39:36;;;;;;;16.10;5.18;;;2.70;97.70;;;;;;5029533;28;20136;-74
2020/12/14 00:42:04;;;;;;;10.45;5.80;;;2.70;97.60;;;;;;5028535;28;20093;-74
2020/12/14 00:44:30;;;;;;;12.73;5.07;;;2.70;97.30;;;;;;5010453;28;20089;-74
2020/12/14 00:46:56;;;;;;;11.95;4.18;;;2.70;97.20;;;;;;5024699;28;20041;-74
2020/12/14 00:49:23;;;;;;;13.90;4.10;;;2.70;96.80;;;;;;5029311;28;20526;-74
2020/12/14 00:51:50;;;;;;;10.82;3.47;;;2.80;96.50;;;;;;5029708;28;20049;-74
2020/12/14 00:54:16;;;;;;;13.00;4.20;;;2.90;96.00;;;;;;5029396;28;20220;-74
2020/12/14 00:56:43;;;;;;;11.25;3.38;;;2.90;95.90;;;;;;5028646;28;20106;-74
2020/12/14 00:59:09;;;;;;;14.15;3.38;;;2.90;95.90;;;;;;5029876;28;20120;-74
2020/12/14 01:01:36;;;;;;;10.88;2.97;;;3.00;95.80;;;;;;5028253;28;20131;-74
2020/12/14 01:04:04;;;;;;;7.82;2.00;;;3.00;95.70;;;;;;5029412;28;20117;-74
2020/12/14 01:06:30;;;;;;;9.88;2.28;;;3.00;95.40;;;;;;5029185;28;20088;-74
2020/12/14 01:08:56;;;;;;;9.73;2.97;;;3.10;95.20;;;;;;5028769;28;20147;-74
2020/12/14 01:11:27;;;;;;;8.32;2.90;;;3.10;95.20;;;;;;5029163;28;20133;-74
2020/12/14 01:13:54;;;;;;;11.13;2.75;;;3.10;95.20;;;;;;5028824;28;20053;-74
2020/12/14 01:16:20;;;;;;;9.90;3.03;;;3.10;95.00;;;;;;5029735;28;20150;-74
2020/12/14 01:18:47;;;;;;;7.50;2.67;;;3.20;95.00;;;;;;5024623;28;20049;-74
2020/12/14 01:21:13;;;;;;;16.52;3.35;;;3.10;95.10;;;;;;5018451;28;20141;-74
2020/12/14 01:23:39;;;;;;;10.95;3.05;;;3.00;95.30;;;;;;5028092;28;20518;-74
2020/12/14 01:26:06;;;;;;;9.20;3.10;;;3.00;95.50;;;;;;5028928;28;20152;-74
2020/12/14 01:28:32;;;;;;;8.27;2.20;;;3.00;95.60;;;;;;5029166;28;20164;-74
2020/12/14 01:30:58;;;;;;;10.32;2.50;;;3.00;95.40;;;;;;5028509;28;20136;-74
2020/12/14 01:33:25;;;;;;;10.20;2.70;;;3.00;95.40;;;;;;5028762;28;20111;-74
2020/12/14 01:35:51;;;;;;;6.93;2.00;;;3.00;95.50;;;;;;5028849;28;20080;-74
2020/12/14 01:38:18;;;;;;;8.13;2.30;;;3.00;95.30;;;;;;5027957;28;20046;-73
2020/12/14 01:40:44;;;;;;;9.80;2.65;;;3.10;95.20;;;;;;5028034;28;20547;-74
2020/12/14 01:43:11;;;;;;;7.13;2.47;;;3.10;95.10;;;;;;5028618;28;20042;-73
2020/12/14 01:45:38;;;;;;;7.88;2.10;;;3.20;95.20;;;;;;5028606;28;20086;-73
2020/12/14 01:48:07;;;;;;;10.35;2.50;;;3.20;94.90;;;;;;5028244;28;20570;-73
2020/12/14 01:50:35;;;;;;;6.88;2.33;;;3.30;94.60;;;;;;5028091;28;20080;-73
2020/12/14 01:53:02;;;;;;;6.28;1.77;;;3.40;94.60;;;;;;5028746;28;20049;-73
2020/12/14 01:55:32;;;;;;;8.98;1.90;;;3.40;94.40;;;;;;5028347;28;20057;-73
2020/12/14 01:57:59;;;;;;;5.72;1.65;;;3.50;94.40;;;;;;5027588;28;20524;-73
2020/12/14 02:00:25;;;;;;;7.75;1.85;;;3.60;94.20;;;;;;5027656;28;20120;-73
2020/12/14 02:02:52;;;;;;;4.25;1.33;;;3.70;93.70;;;;;;5032669;28;20149;-73
2020/12/14 02:05:18;;;;;;;5.38;1.40;;;3.80;93.50;;;;;;5031478;28;20574;-73
2020/12/14 02:07:45;;;;;;;7.97;2.00;;;3.90;93.00;;;;;;5030884;28;20045;-73
2020/12/14 02:10:11;;;;;;;7.80;2.13;;;4.00;93.00;;;;;;5031305;28;20073;-73
2020/12/14 02:12:37;;;;;;;7.63;2.53;;;3.90;93.30;;;;;;5029189;28;20132;-73
2020/12/14 02:15:05;;;;;;;8.13;2.50;;;3.90;93.50;;;;;;5030651;28;20085;-73
2020/12/14 02:17:31;;;;;;;12.55;2.25;;;3.80;94.00;;;;;;5030197;28;20081;-73
2020/12/14 02:19:58;;;;;;;12.25;2.60;;;3.70;94.20;;;;;;5030782;28;20045;-73
2020/12/14 02:22:26;;;;;;;5.80;2.45;;;3.60;94.40;;;;;;5031593;28;20455;-73
2020/12/14 02:24:57;;;;;;;8.10;2.08;;;3.60;94.30;;;;;;5031614;28;20053;-73
2020/12/14 02:27:25;;;;;;;3.92;1.40;;;3.70;94.10;;;;;;5028771;28;20451;-72
2020/12/14 02:29:53;;;;;;;7.95;2.10;;;3.90;93.80;;;;;;5031060;28;20103;-73
2020/12/14 02:32:20;;;;;;;8.75;1.92;;;4.00;93.20;;;;;;5029822;28;20094;-73
2020/12/14 02:34:48;;;;;;;8.95;2.50;;;4.10;92.90;;;;;;5031168;28;20148;-73
2020/12/14 02:37:17;;;;;;;5.43;1.90;;;4.20;93.10;;;;;;5030779;28;20050;-73
2020/12/14 02:39:44;;;;;;;9.35;2.08;;;4.20;93.30;;;;;;5028923;28;20045;-73
2020/12/14 02:42:13;;;;;;;6.97;2.10;;;4.20;93.20;;;;;;5031207;28;20046;-73
2020/12/14 02:44:40;;;;;;;7.47;2.20;;;4.20;93.20;;;;;;5030708;28;20081;-73
2020/12/14 02:47:07;;;;;;;7.30;1.70;;;4.30;92.80;;;;;;5030547;28;20548;-73
2020/12/14 02:49:34;;;;;;;4.60;1.95;;;4.30;93.00;;;;;;5031382;28;20045;-73
2020/12/14 02:52:01;;;;;;;6.30;2.03;;;4.30;92.90;;;;;;5031202;28;20163;-73
2020/12/14 02:54:28;;;;;;;6.22;1.63;;;4.30;92.80;;;;;;5029827;28;20073;-73
2020/12/14 02:56:54;;;;;;;8.65;1.95;;;4.40;92.90;;;;;;5028727;28;20061;-73
2020/12/14 02:59:21;;;;;;;8.63;2.00;;;4.40;92.70;;;;;;5029768;28;20125;-73
2020/12/14 03:01:49;;;;;;;6.47;2.10;;;4.30;93.30;;;;;;5030324;28;20103;-73
2020/12/14 03:04:16;;;;;;;5.70;1.63;;;4.30;93.50;;;;;;5031522;28;20047;-73
2020/12/14 03:06:44;;;;;;;7.38;1.95;;;4.30;93.10;;;;;;5030135;28;20182;-73
2020/12/14 03:09:12;;;;;;;7.68;1.75;;;4.30;93.20;;;;;;5030876;28;20423;-74
2020/12/14 03:11:38;;;;;;;5.97;2.10;;;4.30;93.10;;;;;;5029663;28;20136;-73
2020/12/14 03:14:06;;;;;;;10.80;2.30;;;4.40;93.20;;;;;;5029948;28;20434;-73
2020/12/14 03:16:37;;;;;;;8.90;3.00;;;4.40;93.20;;;;;;5029770;28;20513;-74
2020/12/14 03:19:03;;;;;;;8.07;2.17;;;4.30;93.30;;;;;;5031313;28;20395;-74
2020/12/14 03:21:29;;;;;;;5.10;1.65;;;4.30;93.80;;;;;;5030226;28;20127;-73
2020/12/14 03:23:56;;;;;;;7.18;1.65;;;4.30;93.40;;;;;;5030411;28;20358;-73
2020/12/14 03:26:22;;;;;;;6.32;1.77;;;4.30;93.50;;;;;;5029428;28;20178;-73
2020/12/14 03:28:49;;;;;;;7.93;2.03;;;4.30;93.50;;;;;;5030994;28;20047;-74
2020/12/14 03:31:15;;;;;;;6.95;1.83;;;4.30;93.60;;;;;;5027699;28;20128;-73
2020/12/14 03:33:42;;;;;;;7.90;2.10;;;4.30;93.60;;;;;;5030942;28;20115;-74
2020/12/14 03:36:08;;;;;;;7.97;2.05;;;4.30;93.60;;;;;;5026398;28;20075;-74
2020/12/14 03:38:35;;;;;;;10.05;2.47;;;4.40;93.50;;;;;;5029753;28;20133;-73
2020/12/14 03:41:05;;;;;;;5.57;1.83;;;4.40;93.50;;;;;;5028342;28;20052;-74
2020/12/14 03:43:32;;;;;;;9.15;2.13;;;4.50;93.40;;;;;;5030444;28;20081;-73
2020/12/14 03:45:58;;;;;;;8.15;2.40;;;4.50;93.30;;;;;;5030212;28;20491;-73
2020/12/14 03:48:25;;;;;;;7.65;2.28;;;4.50;93.50;;;;;;5029522;28;20103;-73
2020/12/14 03:50:52;;;;;;;6.15;2.10;;;4.60;93.50;;;;;;5029360;28;20045;-73
2020/12/14 03:53:18;;;;;;;9.02;2.45;;;4.60;93.30;;;;;;5029553;28;20133;-73
2020/12/14 03:55:45;;;;;;;8.30;2.60;;;4.60;93.40;;;;;;5028640;28;21063;-73
2020/12/14 03:58:12;;;;;;;6.65;2.20;;;4.60;93.90;;;;;;5028361;28;20155;-73
2020/12/14 04:00:38;;;;;;;11.80;2.50;;;4.60;93.70;;;;;;5028130;28;20045;-73
2020/12/14 04:03:07;;;;;;;9.07;2.67;;;4.60;93.60;;;;;;5030059;28;20128;-73
2020/12/14 04:05:34;;;;;;;6.78;2.38;;;4.60;93.70;;;;;;5027827;28;20532;-73
2020/12/14 04:08:00;;;;;;;9.48;2.50;;;4.60;93.60;;;;;;5029030;28;20491;-73
2020/12/14 04:10:27;;;;;;;7.97;2.60;;;4.60;93.70;;;;;;5029843;28;20046;-73
2020/12/14 04:12:54;;;;;;;9.00;2.10;;;4.60;93.60;;;;;;5028762;28;20550;-73
2020/12/14 04:15:20;;;;;;;7.47;2.78;;;4.50;93.40;;;;;;5030269;28;20049;-73
2020/12/14 04:17:47;;;;;;;10.68;3.72;;;4.60;93.30;;;;;;5027097;28;20560;-74
2020/12/14 04:20:13;;;;;;;7.43;3.13;;;4.70;93.20;;;;;;5029169;28;20076;-73
2020/12/14 04:22:40;;;;;;;6.13;2.45;;;4.70;93.50;;;;;;5028427;28;20129;-73
2020/12/14 04:25:06;;;;;;;9.15;2.42;;;4.70;93.40;;;;;;5028041;28;20123;-73
2020/12/14 04:27:32;;;;;;;7.30;2.25;;;4.70;93.20;;;;;;5028322;28;20144;-73
2020/12/14 04:29:58;;;;;;;7.30;2.20;;;4.70;93.30;;;;;;5028663;28;20131;-73
2020/12/14 04:32:25;;;;;;;5.85;2.50;;;4.70;93.20;;;;;;5014698;28;20081;-73
2020/12/14 04:34:51;;;;;;;8.80;2.78;;;4.70;93.20;;;;;;5028505;28;20071;-73
2020/12/14 04:37:17;;;;;;;8.55;2.25;;;4.70;93.50;;;;;;5029597;28;20073;-73
2020/12/14 04:39:44;;;;;;;8.65;2.28;;;4.80;93.50;;;;;;5028982;28;20080;-73
2020/12/14 04:42:11;;;;;;;10.60;1.88;;;4.70;93.30;;;;;;5028119;28;20524;-73
2020/12/14 04:44:38;;;;;;;9.88;2.60;;;4.80;93.40;;;;;;5029779;28;20081;-73
2020/12/14 04:47:09;;;;;;;5.25;2.42;;;4.70;93.20;;;;;;5026901;28;20124;-73
2020/12/14 04:49:36;;;;;;;12.65;2.40;;;4.80;93.20;;;;;;5012291;28;20128;-73
2020/12/14 04:52:03;;;;;;;8.50;2.63;;;4.80;93.30;;;;;;5028378;28;20045;-73
2020/12/14 04:54:33;;;;;;;7.50;2.15;;;4.80;93.10;;;;;;5029601;28;20128;-73
2020/12/14 04:57:08;;;;;;;10.48;2.90;;;4.90;92.70;;;;;;5028741;28;20103;-74
2020/12/14 04:59:35;;;;;;;8.07;2.25;;;4.90;92.90;;;;;;5028600;28;20144;-73
2020/12/14 05:02:07;;;;;;;8.20;2.58;;;4.90;92.70;;;;;;5028228;28;20077;-73
2020/12/14 05:04:35;;;;;;;7.80;2.80;;;4.90;92.70;;;;;;5028308;28;20068;-73
2020/12/14 05:07:02;;;;;;;9.82;2.58;;;5.00;92.70;;;;;;5027554;28;20124;-73
2020/12/14 05:09:28;;;;;;;8.93;2.67;;;4.90;92.90;;;;;;5031701;28;20045;-73
2020/12/14 05:11:55;;;;;;;6.35;2.53;;;4.80;93.30;;;;;;5031185;28;20055;-73
2020/12/14 05:14:24;;;;;;;9.40;2.45;;;4.80;93.10;;;;;;5028191;28;20102;-74
2020/12/14 05:16:51;;;;;;;9.07;2.50;;;4.70;93.00;;;;;;5027882;28;20068;-65
2020/12/14 05:19:27;;;;;;;6.32;2.30;;;4.80;93.10;;;;;;5028285;28;20056;-65
2020/12/14 05:21:59;;;;;;;6.03;2.00;;;4.80;92.90;;;;;;5027763;28;20060;-66
2020/12/14 05:24:30;;;;;;;7.60;2.15;;;4.80;92.60;;;;;;5028952;28;20045;-66
2020/12/14 05:26:59;;;;;;;8.30;2.13;;;4.90;92.70;;;;;;5026919;28;20124;-66
2020/12/14 05:29:27;;;;;;;7.50;2.25;;;4.90;92.70;;;;;;5028070;28;20157;-66
2020/12/14 05:32:11;;;;;;;9.02;2.22;;;4.90;93.00;;;;;;5027116;28;20057;-66
2020/12/14 05:34:41;;;;;;;6.22;2.85;;;4.90;92.60;;;;;;5027187;28;20296;-66
2020/12/14 05:37:10;;;;;;;7.45;2.00;;;4.90;92.70;;;;;;5027017;28;20081;-66
2020/12/14 05:39:39;;;;;;;6.80;2.28;;;4.90;92.80;;;;;;5028258;28;20497;-66
2020/12/14 05:42:12;;;;;;;7.82;1.90;;;4.90;92.50;;;;;;5027187;28;20453;-66
2020/12/14 05:44:40;;;;;;;7.05;2.42;;;4.90;92.40;;;;;;5027342;28;20125;-67
2020/12/14 05:47:27;;;;;;;7.30;1.90;;;4.90;92.40;;;;;;5027662;28;20462;-67
2020/12/14 05:49:58;;;;;;;7.28;2.10;;;5.00;92.30;;;;;;5009312;28;20045;-67
2020/12/14 05:52:34;;;;;;;10.32;2.55;;;4.90;92.30;;;;;;5028845;28;20163;-67
2020/12/14 05:55:01;;;;;;;7.18;2.60;;;4.90;92.20;;;;;;5026328;28;20061;-67
2020/12/14 05:57:30;;;;;;;5.18;2.15;;;4.80;92.80;;;;;;5026995;28;20049;-67
2020/12/14 06:00:08;;;;;;;5.50;2.10;;;4.70;92.80;;;;;;5028123;28;20140;-66
2020/12/14 06:02:35;;;;;;;9.98;2.88;;;4.70;93.10;;;;;;5025202;28;20046;-67
2020/12/14 06:05:05;;;;;;;8.93;2.53;;;4.70;92.90;;;;;;5024044;28;20061;-66
2020/12/14 06:07:33;;;;;;;8.27;2.60;;;4.70;93.20;;;;;;5025841;28;20592;-67
2020/12/14 06:10:07;;;;;;;4.22;1.83;;;4.70;93.00;;;;;;5027847;28;20524;-67
2020/12/14 06:12:36;;;;;;;7.95;2.22;;;4.70;92.70;;;;;;5026967;28;20041;-67
2020/12/14 06:15:30;;;;;;;7.75;2.00;;;4.70;92.70;;;;;;5028258;28;20823;-66
2020/12/14 06:18:00;;;;;;;;;;;4.70;92.80;;;;;;5023395;28;20045;-67
2020/12/14 06:20:27;;;;;;;6.07;2.25;;;4.80;92.60;;;;;;5028147;28;20016;-67
2020/12/14 06:23:05;;;;;;;7.60;2.35;;;4.80;92.70;;;;;;5028028;28;20050;-67
2020/12/14 06:25:32;;;;;;;7.22;2.42;;;4.80;92.60;;;;;;5025707;28;20128;-66
2020/12/14 06:28:28;;;;;;;8.90;2.80;;;4.80;92.80;;;;;;5027401;28;20045;-67
2020/12/14 06:30:56;;;;;;;7.72;2.78;;;4.80;92.80;;;;;;5021365;28;20164;-66
2020/12/14 06:33:35;;;;;;;11.35;3.03;;;4.80;92.80;;;;;;5018466;28;20054;-66
2020/12/14 06:36:21;;;;;;;6.22;2.92;;;4.80;93.00;;;;;;5022504;28;20050;-67
2020/12/14 06:38:50;;;;;;;8.07;3.05;;;4.80;92.80;;;;;;5027326;28;20099;-67
2020/12/14 06:41:18;;;;;;;8.73;2.75;;;4.80;92.80;;;;;;5025903;28;20079;-66
2020/12/14 06:43:47;;;;;;;7.80;3.22;;;4.70;92.80;;;;;;5027245;28;20115;-67
2020/12/14 06:46:14;;;;;;;8.45;3.53;;;4.50;93.30;;;;;;5021201;28;20043;-66
2020/12/14 06:48:43;;;;;;;6.18;1.92;;;4.50;93.60;;;;;;5030128;28;20132;-67
2020/12/14 06:51:15;;;;;;;9.02;2.92;;;4.30;93.50;;;;;;5030530;28;20087;-66
2020/12/14 06:53:52;;;;;;;11.07;3.38;;;4.30;93.90;;;;;;5031517;28;20081;-67
2020/12/14 06:56:27;;;;;;;10.13;2.80;;;4.30;93.90;;;;;;5030325;28;20471;-66
2020/12/14 06:58:56;;;;;;;8.68;3.25;;;4.20;94.00;;;;;;5029871;28;20096;-66
2020/12/14 07:01:36;;;;;;;7.85;2.97;;;4.20;94.10;;;;;;5031719;28;20085;-66
2020/12/14 07:04:27;;;;;;;14.93;3.72;;;4.20;94.10;;;;;;5030022;28;20048;-66
2020/12/14 07:06:57;;;;;;;10.40;3.47;;;4.20;94.00;;;;;;5029245;28;20128;-66
2020/12/14 07:09:31;;;;;;;9.85;4.00;;;4.20;93.90;;;;;;5030768;28;20092;-66
2020/12/14 07:12:09;;;;;;;11.43;4.43;;;4.10;93.90;;;;;;5031218;28;20080;-67
2020/12/14 07:14:35;;;;;;;11.07;2.53;;;4.10;94.00;;;;;;5029070;28;20553;-68
2020/12/14 07:17:26;;;;;;;10.82;4.32;;;4.10;93.90;;;;;;5029532;28;20187;-67
2020/12/14 07:19:58;;;;;;;9.13;3.90;;;4.00;94.10;;;;;;5011770;28;20054;-67
2020/12/14 07:22:33;;;;;;;10.45;3.92;;;4.00;94.00;;;;;;5026402;28;20149;-67
2020/12/14 07:25:08;;;;;;;9.20;3.25;;;4.00;94.10;;;;;;5029022;28;20049;-66
2020/12/14 07:27:35;;;;;;;8.55;3.72;;;4.00;94.00;;;;;;5029296;28;20165;-66
2020/12/14 07:30:04;;;;;;;10.38;4.10;;;4.10;94.00;;;;;;5031434;28;20048;-66
2020/12/14 07:32:31;;;;;;;12.07;5.45;;;4.10;93.90;;;;;;5028928;28;20128;-67
2020/12/14 07:34:58;;;;;;;14.40;6.00;;;4.20;93.90;;;;;;5030607;28;20056;-67
2020/12/14 07:37:24;;;;;;;13.43;5.25;;;4.20;93.90;;;;;;5027368;28;20111;-66
2020/12/14 07:39:52;;;;;;;13.07;5.93;;;4.10;94.00;;;;;;5026243;28;20188;-67
2020/12/14 07:42:26;;;;;;;10.63;6.05;;;4.10;94.00;;;;;;5018057;28;20141;-67
2020/12/14 07:45:12;;;;;;;15.05;6.05;;;4.10;94.10;;;;;;5017982;28;20056;-66
2020/12/14 07:47:42;;;;;;;16.40;6.88;;;4.10;94.10;;;;;;5021658;28;20478;-66
2020/12/14 07:50:17;;;;;;;12.30;6.07;;;4.10;94.00;;;;;;5020267;28;20041;-66
2020/12/14 07:52:46;;;;;;;15.77;7.15;;;4.10;94.10;;;;;;5023547;28;20083;-67
2020/12/14 07:55:14;;;;;;;20.17;8.15;;;4.10;94.10;;;;;;5028448;28;20076;-67
2020/12/14 07:57:44;;;;;;;18.02;6.75;;;4.00;94.20;;;;;;5023458;28;20124;-66
2020/12/14 08:00:16;;;;;;;14.02;4.85;;;4.00;94.30;;;;;;5018391;28;20046;-67
2020/12/14 08:02:44;;;;;;;11.77;5.57;;;4.00;94.40;;;;;;5012461;28;20045;-66
2020/12/14 08:05:15;;;;;;;10.70;5.40;;;4.00;94.40;;;;;;5027669;28;20059;-66
2020/12/14 08:07:47;;;;;;;10.88;4.60;;;3.90;94.40;;;;;;5021597;28;20085;-66
2020/12/14 08:10:29;;;;;;;11.70;4.15;;;4.00;94.10;;;;;;5029509;28;20497;-67
2020/12/14 08:12:57;;;;;;;7.40;2.25;;;4.10;93.80;;;;;;5027468;28;20464;-66
2020/12/14 08:15:25;;;;;;;8.65;3.65;;;4.20;93.60;;;;;;5029146;28;20046;-67
2020/12/14 08:17:52;;;;;;;9.80;4.18;;;4.30;93.50;;;;;;5027919;28;20064;-66
2020/12/14 08:20:30;;;;;;;12.68;4.55;;;4.30;93.40;;;;;;5027032;28;20120;-67
2020/12/14 08:23:01;;;;;;;11.43;4.45;;;4.40;93.40;;;;;;5025202;28;20037;-66
2020/12/14 08:25:31;;;;;;;6.15;2.83;;;4.40;93.40;;;;;;5027787;28;20112;-66
2020/12/14 08:28:00;;;;;;;8.55;2.72;;;4.60;92.90;;;;;;5029705;28;20045;-67
2020/12/14 08:30:27;;;;;;;10.25;2.70;;;4.70;92.70;;;;;;5028739;28;20151;-66
2020/12/14 08:33:12;;;;;;;10.25;2.95;;;4.80;92.60;;;;;;5029816;28;20135;-66
2020/12/14 08:35:40;;;;;;;7.10;2.45;;;5.00;92.40;;;;;;5029495;28;20041;-67
2020/12/14 08:38:12;;;;;;;5.50;2.30;;;5.10;92.00;;;;;;5027949;28;20469;-66
2020/12/14 08:40:40;;;;;;;11.18;2.90;;;5.10;92.10;;;;;;5029616;28;20136;-66
2020/12/14 08:43:16;;;;;;;7.65;2.45;;;5.20;91.90;;;;;;5028897;28;20096;-67
2020/12/14 08:46:04;;;;;;;8.05;1.95;;;5.30;91.70;;;;;;5029876;28;20136;-67
2020/12/14 08:48:44;;;;;;;8.30;3.03;;;5.40;91.50;;;;;;5009753;28;20517;-67
2020/12/14 08:51:26;;;;;;;7.63;2.05;;;5.50;91.30;;;;;;5023601;28;20081;-66
2020/12/14 08:53:55;;;;;;;4.15;1.92;;;5.50;90.70;;;;;;5029295;28;20097;-66
2020/12/14 08:56:24;;;;;;;6.75;1.92;;;5.60;91.10;;;;;;5027634;28;20054;-66
2020/12/14 08:59:00;;;;;;;7.47;2.45;;;5.60;90.90;;;;;;5029342;28;20493;-67
2020/12/14 09:01:33;;;;;;;5.95;2.35;;;5.70;90.70;;;;;;5028474;28;20041;-66
2020/12/14 09:04:05;;;;;;;8.43;3.47;;;5.80;90.10;;;;;;5028983;28;20135;-67
2020/12/14 09:06:33;;;;;;;8.15;2.97;;;5.90;90.00;;;;;;5027262;28;20128;-66
2020/12/14 09:09:02;;;;;;;7.15;2.47;;;5.90;90.10;;;;;;5028372;28;20120;-67
2020/12/14 09:11:31;;;;;;;8.65;2.38;;;5.90;89.00;;;;;;5017073;28;20128;-67
2020/12/14 09:14:04;;;;;;;7.38;2.00;;;5.90;89.00;;;;;;5029137;28;20053;-66
2020/12/14 09:16:31;;;;;;;4.65;2.00;;;5.90;88.30;;;;;;5028342;28;20143;-67
2020/12/14 09:18:58;;;;;;;5.22;1.50;;;5.80;89.10;;;;;;5029481;28;20053;-66
2020/12/14 09:21:24;;;;;;;4.68;1.50;;;5.80;88.70;;;;;;5027310;28;20045;-67
2020/12/14 09:24:10;;;;;;;5.93;1.50;;;5.80;87.70;;;;;;5029132;28;20064;-67
2020/12/14 09:26:37;;;;;;;4.85;1.40;;;5.80;88.70;;;;;;5027487;28;20100;-67
2020/12/14 09:29:03;;;;;;;7.00;1.73;;;5.80;88.70;;;;;;5027365;28;20371;-66
2020/12/14 09:31:30;;;;;;;7.28;1.67;;;5.80;88.60;;;;;;5027996;28;20131;-66
2020/12/14 09:33:57;;;;;;;5.28;1.40;;;5.90;89.10;;;;;;5028983;28;20443;-67
2020/12/14 09:36:23;;;;;;;6.03;2.17;;;5.90;87.90;;;;;;5027996;28;20059;-67
2020/12/14 09:38:49;;;;;;;8.57;2.00;;;6.10;88.30;;;;;;5028744;28;20049;-67
2020/12/14 09:41:16;;;;;;;4.65;1.45;;;6.30;87.50;;;;;;5027056;28;20128;-67
2020/12/14 09:43:43;;;;;;;5.45;1.52;;;6.40;87.40;;;;;;5028473;28;20045;-67
2020/12/14 09:46:10;;;;;;;3.92;1.50;;;6.50;86.50;;;;;;5026649;28;20103;-66
2020/12/14 09:48:37;;;;;;;5.57;1.83;;;6.70;87.60;;;;;;5028503;28;20046;-67
2020/12/14 09:51:06;;;;;;;5.68;1.73;;;6.90;85.70;;;;;;5027052;28;20098;-67
2020/12/14 09:53:33;;;;;;;6.93;1.60;;;7.00;84.70;;;;;;5027929;28;20077;-67
2020/12/14 09:56:00;;;;;;;6.80;1.88;;;7.20;84.30;;;;;;5027968;28;20137;-67
2020/12/14 09:58:42;;;;;;;5.03;1.40;;;7.40;83.30;;;;;;5027438;28;20072;-67
2020/12/14 10:01:09;;;;;;;4.40;1.45;;;7.60;83.10;;;;;;5030385;28;20492;-67
2020/12/14 10:03:35;;;;;;;8.50;1.90;;;7.70;81.20;;;;;;5026898;28;20467;-67
2020/12/14 10:06:02;;;;;;;6.28;2.28;;;7.60;80.10;;;;;;5028118;28;20041;-66
2020/12/14 10:08:28;;;;;;;9.63;1.75;;;7.70;80.80;;;;;;5028647;28;20129;-67
2020/12/14 10:10:56;;;;;;;5.85;1.33;;;7.70;80.90;;;;;;5028669;28;20065;-67
2020/12/14 10:13:26;;;;;;;5.93;1.20;;;7.80;81.10;;;;;;5029337;28;20125;-67
2020/12/14 10:15:53;;;;;;;3.63;1.00;;;7.70;80.50;;;;;;5028006;28;20045;-67
2020/12/14 10:18:20;;;;;;;4.72;1.40;;;7.90;81.10;;;;;;5032455;28;20096;-67
2020/12/14 10:20:46;;;;;;;3.97;1.25;;;8.00;81.10;;;;;;5030097;28;20129;-67
2020/12/14 10:23:13;;;;;;;4.07;1.50;;;8.20;80.10;;;;;;5032522;28;20046;-67
2020/12/14 10:25:41;;;;;;;4.15;1.30;;;8.30;80.70;;;;;;5032329;28;20475;-67
2020/12/14 10:28:07;;;;;;;4.75;1.23;;;8.50;79.30;;;;;;5031770;28;20103;-67
2020/12/14 10:30:35;;;;;;;4.22;1.13;;;8.60;79.60;;;;;;5031953;28;20431;-67
2020/12/14 10:33:16;;;;;;;7.43;1.55;;;8.60;79.70;;;;;;5031218;28;20041;-67
2020/12/14 10:35:44;;;;;;;2.47;0.90;;;8.70;80.40;;;;;;5038962;28;20045;-67
2020/12/14 10:38:11;;;;;;;2.85;1.00;;;8.70;77.40;;;;;;5029870;28;20048;-67
2020/12/14 10:40:38;;;;;;;2.88;1.15;;;8.70;78.50;;;;;;5032103;28;20275;-67
2020/12/14 10:43:04;;;;;;;4.13;1.20;;;8.70;77.70;;;;;;5031446;28;20124;-67
2020/12/14 10:45:31;;;;;;;4.15;1.45;;;8.70;78.40;;;;;;5031409;28;20156;-67
2020/12/14 10:47:58;;;;;;;3.45;1.20;;;8.70;78.40;;;;;;5021774;28;20517;-67
2020/12/14 10:50:26;;;;;;;4.88;1.25;;;8.70;77.60;;;;;;5027681;28;20098;-67
2020/12/14 10:52:53;;;;;;;6.63;1.63;;;8.70;77.30;;;;;;5032335;28;20502;-67
2020/12/14 10:55:20;;;;;;;7.75;1.88;;;8.80;76.90;;;;;;5044565;28;20715;-67
2020/12/14 10:57:47;;;;;;;3.72;1.20;;;8.80;77.30;;;;;;5043575;28;20121;-67
2020/12/14 11:00:13;;;;;;;3.60;1.27;;;8.90;77.50;;;;;;5032759;28;20072;-67
2020/12/14 11:02:40;;;;;;;4.00;1.27;;;9.00;75.80;;;;;;5031871;28;20136;-66
2020/12/14 11:05:09;;;;;;;4.32;1.52;;;9.00;76.00;;;;;;5033077;28;20147;-66
2020/12/14 11:07:37;;;;;;;4.25;1.42;;;9.10;76.90;;;;;;5029578;28;20056;-67
2020/12/14 11:10:06;;;;;;;5.28;1.73;;;9.20;74.30;;;;;;5034191;28;20041;-67
2020/12/14 11:12:33;;;;;;;3.55;1.15;;;9.20;76.20;;;;;;5051321;28;20081;-67
2020/12/14 11:15:00;;;;;;;5.72;1.80;;;9.10;74.70;;;;;;5051410;28;20079;-67
2020/12/14 11:17:27;;;;;;;5.50;2.10;;;9.20;77.70;;;;;;5047199;28;20121;-67
2020/12/14 11:19:54;;;;;;;6.07;2.03;;;9.20;76.00;;;;;;5028847;28;20388;-67
2020/12/14 11:22:20;;;;;;;6.68;1.90;;;9.20;76.70;;;;;;5030339;28;20085;-67
2020/12/14 11:24:46;;;;;;;6.28;1.98;;;9.20;77.10;;;;;;5031014;28;20041;-67
2020/12/14 11:27:17;;;;;;;6.93;1.50;;;9.20;79.20;;;;;;5013514;28;20115;-67
2020/12/14 11:29:44;;;;;;;6.57;1.88;;;9.40;77.20;;;;;;5031222;28;20080;-67
2020/12/14 11:32:30;;;;;;;4.90;1.95;;;9.40;76.30;;;;;;5025791;28;20093;-67
2020/12/14 11:34:57;;;;;;;4.18;1.60;;;9.30;76.50;;;;;;5027291;28;20057;-68
2020/12/14 11:37:23;;;;;;;5.30;1.83;;;9.40;75.10;;;;;;5029093;28;20045;-67
2020/12/14 11:39:49;;;;;;;3.67;1.20;;;9.40;75.80;;;;;;5030536;28;20529;-67
2020/12/14 11:42:16;;;;;;;7.00;1.98;;;9.50;76.60;;;;;;5031176;28;20053;-67
2020/12/14 11:44:42;;;;;;;3.42;1.30;;;9.60;74.60;;;;;;5030945;28;20428;-67
2020/12/14 11:47:09;;;;;;;3.05;0.95;;;9.50;74.20;;;;;;5030051;28;20048;-67
2020/12/14 11:49:37;;;;;;;3.20;1.35;;;9.50;73.80;;;;;;5029527;28;20479;-67
2020/12/14 11:52:07;;;;;;;4.05;1.20;;;9.50;75.10;;;;;;5029408;28;20073;-67
2020/12/14 11:54:34;;;;;;;8.25;2.80;;;9.50;75.30;;;;;;5030654;28;20053;-67
2020/12/14 11:57:00;;;;;;;4.90;1.45;;;9.70;75.70;;;;;;5027658;28;20054;-67
2020/12/14 11:59:27;;;;;;;3.45;1.25;;;9.70;74.70;;;;;;5030703;28;20075;-67
2020/12/14 12:01:54;;;;;;;4.50;1.33;;;9.70;74.70;;;;;;5030209;28;20080;-67
2020/12/14 12:04:21;;;;;;;4.13;1.40;;;9.90;73.90;;;;;;5030658;28;20060;-67
2020/12/14 12:06:47;;;;;;;5.70;2.10;;;10.10;75.90;;;;;;5030314;28;20467;-67
2020/12/14 12:09:31;;;;;;;3.78;1.70;;;10.30;75.20;;;;;;5030176;28;20263;-67
2020/12/14 12:11:57;;;;;;;4.28;1.10;;;10.40;72.70;;;;;;5030772;28;20103;-68
2020/12/14 12:14:24;;;;;;;4.50;0.90;;;10.50;73.40;;;;;;5023871;28;20567;-67
2020/12/14 12:16:50;;;;;;;3.53;1.20;;;10.60;71.10;;;;;;5025641;28;20153;-67
2020/12/14 12:19:18;;;;;;;5.00;1.20;;;10.70;73.20;;;;;;5029970;28;20045;-67
2020/12/14 12:21:48;;;;;;;5.60;1.20;;;10.80;73.70;;;;;;5030254;28;20049;-67
2020/12/14 12:24:15;;;;;;;3.92;1.33;;;10.90;72.60;;;;;;5030800;28;20049;-67
2020/12/14 12:26:47;;;;;;;2.20;0.93;;;11.00;71.00;;;;;;5030065;28;20041;-66
2020/12/14 12:29:15;;;;;;;3.65;1.17;;;10.90;71.60;;;;;;5030232;28;20473;-66
2020/12/14 12:31:47;;;;;;;10.15;1.23;;;10.70;71.60;;;;;;5029823;28;20053;-67
2020/12/14 12:34:27;;;;;;;3.22;1.10;;;10.60;70.90;;;;;;5029750;28;20057;-67
2020/12/14 12:36:56;;;;;;;4.10;1.38;;;10.60;73.40;;;;;;5046067;28;20748;-67
2020/12/14 12:39:22;;;;;;;4.18;1.30;;;10.50;72.80;;;;;;5044687;28;20635;-67
2020/12/14 12:41:51;;;;;;;5.00;1.73;;;10.40;73.50;;;;;;5029189;28;20132;-67
2020/12/14 12:44:18;;;;;;;3.40;1.20;;;10.30;72.80;;;;;;5029751;28;20191;-67
2020/12/14 12:46:45;;;;;;;4.93;0.93;;;10.30;74.30;;;;;;5029086;28;20049;-67
2020/12/14 12:49:11;;;;;;;1.90;0.90;;;10.30;73.80;;;;;;5029007;28;20187;-67
2020/12/14 12:51:43;;;;;;;3.42;1.20;;;10.40;73.00;;;;;;5019023;28;20058;-67
2020/12/14 12:54:11;;;;;;;3.50;1.20;;;10.50;73.90;;;;;;5028156;28;20115;-67
2020/12/14 12:56:37;;;;;;;3.50;1.15;;;10.40;72.20;;;;;;5029069;28;20155;-66
2020/12/14 12:59:03;;;;;;;3.80;1.20;;;10.40;71.60;;;;;;5029047;28;20621;-67
2020/12/14 13:01:30;;;;;;;3.03;1.10;;;10.30;73.30;;;;;;5026898;28;20133;-68
2020/12/14 13:03:56;;;;;;;4.35;1.30;;;10.30;73.30;;;;;;5026134;28;20126;-66